NCAR-RAP Real-Time Weather Data

Output produced by METARs form (08 May 2021  00:47 UTC)
found at http://weather.rap.ucar.edu/surface/
 
KRXE 072353Z AUTO 24019G32KT 10SM BKN085 19/M03 A2986 RMK AO2 PK WND 26036/2331 SLP083 T01941033 10233 20183 53012
KRXE 072253Z AUTO 25024G37KT 10SM FEW034 OVC085 19/M01 A2984 RMK AO2 PK WND 26037/2250 SLP077 T01941006
KRXE 072153Z AUTO 23022G31KT 10SM FEW085 22/M01 A2983 RMK AO2 PK WND 25035/2106 SLP066 T02221011
KRXE 072053Z AUTO 20020G34KT 10SM CLR 23/M01 A2982 RMK AO2 PK WND 21036/2017 SLP063 T02281006 56017
KRXE 071953Z AUTO 22018G35KT 10SM CLR 23/01 A2982 RMK AO2 PK WND 22035/1945 SLP063 T02280006
KRXE 071853Z AUTO 21014G26KT 170V230 10SM CLR 21/04 A2985 RMK AO2 PK WND 18027/1754 SLP073 T02110039
KRXE 071753Z AUTO 20016G25KT 10SM CLR 19/04 A2988 RMK AO2 PK WND 22026/1703 SLP080 T01890044 10189 20089 53002
KRXE 071653Z AUTO 20016G26KT 10SM CLR 18/04 A2988 RMK AO2 PK WND 20027/1637 SLP077 T01780039
KRXE 071553Z AUTO 20017G25KT 10SM CLR 17/03 A2987 RMK AO2 PK WND 20032/1536 SLP075 T01720033
KRXE 071453Z AUTO 20016G24KT 10SM CLR 17/01 A2987 RMK AO2 SLP074 T01670006 52005
KRXE 071353Z AUTO 13005KT 10SM CLR 13/01 A2986 RMK AO2 SLP070 T01280006
KRXE 071253Z AUTO 00000KT 10SM CLR 09/01 A2987 RMK AO2 SLP077 T00940011 $
KRXE 071153Z AUTO 36007KT 10SM CLR 09/01 A2986 RMK AO2 SLP071 T00890011 10161 20083 58017 $
KRXE 071053Z AUTO 07005KT 10SM CLR 09/01 A2988 RMK AO2 SLP082 T00940011 $